Time;durP1;ratioP1;P1;durP2;ratioP2;P2;SDS_P1;SDS_P2;PMS_P1;PMS_P2;Temp;Humidity;BMP_temperature;BMP_pressure;BME280_temperature;BME280_humidity;BME280_pressure;Samples;Min_cycle;Max_cycle;Signal;HPM_P1;HPM_P2
2022/08/02 00:00:09;;;;;;;7.95;3.78;;;;;;;;;;5019299;28;92451;-71
2022/08/02 00:02:35;;;;;;;5.18;3.92;;;;;;;;;;5017005;28;94745;-70
2022/08/02 00:05:02;;;;;;;10.60;3.78;;;;;;;;;;5016287;28;92821;-71
2022/08/02 00:07:28;;;;;;;8.25;4.00;;;;;;;;;;5016007;28;93282;-71
2022/08/02 00:09:55;;;;;;;7.65;3.67;;;;;;;;;;5013929;28;94159;-71
2022/08/02 00:12:21;;;;;;;7.70;4.05;;;;;;;;;;4996093;28;93587;-71
2022/08/02 00:14:48;;;;;;;7.40;3.92;;;;;;;;;;4995144;28;92326;-71
2022/08/02 00:17:14;;;;;;;7.60;4.05;;;;;;;;;;4994683;28;93556;-71
2022/08/02 00:19:40;;;;;;;7.30;3.70;;;;;;;;;;4996038;28;91642;-71
2022/08/02 00:22:07;;;;;;;9.63;4.10;;;;;;;;;;4995946;28;93112;-71
2022/08/02 00:24:34;;;;;;;7.85;4.22;;;;;;;;;;4998024;28;93443;-71
2022/08/02 00:27:02;;;;;;;9.00;4.03;;;;;;;;;;5007770;28;94844;-70
2022/08/02 00:29:34;;;;;;;13.88;4.32;;;;;;;;;;5014653;28;94023;-72
2022/08/02 00:32:08;;;;;;;7.43;3.78;;;;;;;;;;5013944;28;92481;-71
2022/08/02 00:34:34;;;;;;;8.15;4.35;;;;;;;;;;5015509;28;92469;-71
2022/08/02 00:37:03;;;;;;;7.18;4.07;;;;;;;;;;5014100;28;93350;-71
2022/08/02 00:39:29;;;;;;;8.35;4.10;;;;;;;;;;5015923;28;92559;-71
2022/08/02 00:42:00;;;;;;;10.60;4.32;;;;;;;;;;5015723;28;94068;-71
2022/08/02 00:44:27;;;;;;;3.80;3.50;;;;;;;;;;4997879;28;93530;-71
2022/08/02 00:46:53;;;;;;;5.68;3.80;;;;;;;;;;4998034;28;92518;-71
2022/08/02 00:49:19;;;;;;;10.38;4.47;;;;;;;;;;4994689;28;93406;-71
2022/08/02 00:51:46;;;;;;;8.32;4.20;;;;;;;;;;4992636;28;94883;-71
2022/08/02 00:54:13;;;;;;;7.32;4.00;;;;;;;;;;4995276;28;95251;-71
2022/08/02 00:56:40;;;;;;;9.73;4.50;;;;;;;;;;4994014;28;93093;-71
2022/08/02 00:59:15;;;;;;;9.45;4.40;;;;;;;;;;4994755;28;92428;-71
2022/08/02 01:01:42;;;;;;;9.20;5.63;;;;;;;;;;4995752;28;93101;-72
2022/08/02 01:04:23;;;;;;;8.88;4.10;;;;;;;;;;4998519;28;93693;-71
2022/08/02 01:06:57;;;;;;;10.48;4.95;;;;;;;;;;5001146;28;92447;-71
2022/08/02 01:09:23;;;;;;;11.07;4.60;;;;;;;;;;4999355;28;93582;-71
2022/08/02 01:11:50;;;;;;;8.38;4.97;;;;;;;;;;4998553;28;93373;-71
2022/08/02 01:14:16;;;;;;;15.45;5.15;;;;;;;;;;4998550;28;94244;-71
2022/08/02 01:16:49;;;;;;;16.38;4.95;;;;;;;;;;4996984;28;95933;-72
2022/08/02 01:19:30;;;;;;;10.68;4.90;;;;;;;;;;4998078;28;92481;-71
2022/08/02 01:22:16;;;;;;;13.30;4.57;;;;;;;;;;4998732;28;92916;-71
2022/08/02 01:24:49;;;;;;;7.30;4.75;;;;;;;;;;4998100;28;94087;-71
2022/08/02 01:27:19;;;;;;;;;;;;;;;;;;4998774;28;93285;-71
2022/08/02 01:29:48;;;;;;;9.30;5.10;;;;;;;;;;5001397;28;123193;-71
2022/08/02 01:32:16;;;;;;;6.85;4.68;;;;;;;;;;4998576;28;92453;-71
2022/08/02 01:34:48;;;;;;;6.82;4.43;;;;;;;;;;4990388;28;93587;-71
2022/08/02 01:37:17;;;;;;;8.23;4.90;;;;;;;;;;4998459;28;92517;-71
2022/08/02 01:39:44;;;;;;;6.75;4.88;;;;;;;;;;4997244;28;92423;-71
2022/08/02 01:42:11;;;;;;;7.70;4.22;;;;;;;;;;4996682;28;94629;-71
2022/08/02 01:44:39;;;;;;;9.10;5.13;;;;;;;;;;4997728;28;94375;-71
2022/08/02 01:47:13;;;;;;;7.70;4.32;;;;;;;;;;4996971;28;92413;-71
2022/08/02 01:49:41;;;;;;;5.45;4.55;;;;;;;;;;4997366;28;93142;-71
2022/08/02 01:52:20;;;;;;;13.82;5.13;;;;;;;;;;5001639;28;92696;-71
2022/08/02 01:55:09;;;;;;;8.38;4.20;;;;;;;;;;4997434;28;94184;-71
2022/08/02 01:57:46;;;;;;;8.60;5.03;;;;;;;;;;4996823;28;94724;-71
2022/08/02 02:00:13;;;;;;;10.88;4.55;;;;;;;;;;4998505;28;91749;-71
2022/08/02 02:02:42;;;;;;;7.03;4.70;;;;;;;;;;4996941;28;92634;-71
2022/08/02 02:05:11;;;;;;;10.40;4.38;;;;;;;;;;4998717;28;93416;-71
2022/08/02 02:07:38;;;;;;;14.35;4.85;;;;;;;;;;4996294;28;94843;-71
2022/08/02 02:10:04;;;;;;;7.60;4.47;;;;;;;;;;4997071;28;95694;-71
2022/08/02 02:12:32;;;;;;;12.07;4.30;;;;;;;;;;4997697;28;93592;-71
2022/08/02 02:14:58;;;;;;;10.68;4.05;;;;;;;;;;4999253;28;92516;-72
2022/08/02 02:17:26;;;;;;;9.77;4.68;;;;;;;;;;4997711;28;94239;-71
2022/08/02 02:20:14;;;;;;;10.95;4.38;;;;;;;;;;4997988;28;92424;-71
2022/08/02 02:22:41;;;;;;;6.07;3.83;;;;;;;;;;4997222;28;93142;-71
2022/08/02 02:25:08;;;;;;;8.13;4.18;;;;;;;;;;5000310;28;92526;-71
2022/08/02 02:27:37;;;;;;;13.43;4.10;;;;;;;;;;4999102;28;92416;-70
2022/08/02 02:30:05;;;;;;;8.50;3.97;;;;;;;;;;4997582;28;95514;-71
2022/08/02 02:32:32;;;;;;;9.30;4.55;;;;;;;;;;4997425;28;96536;-71
2022/08/02 02:35:00;;;;;;;8.77;3.90;;;;;;;;;;4997526;28;92462;-71
2022/08/02 02:37:27;;;;;;;11.05;3.60;;;;;;;;;;4999337;28;95859;-71
2022/08/02 02:39:54;;;;;;;13.25;4.22;;;;;;;;;;4997257;28;92482;-71
2022/08/02 02:42:22;;;;;;;10.02;3.67;;;;;;;;;;5005276;28;94105;-71
2022/08/02 02:44:50;;;;;;;8.90;3.75;;;;;;;;;;5015935;28;93381;-71
2022/08/02 02:47:17;;;;;;;5.93;3.72;;;;;;;;;;5017737;28;92501;-71
2022/08/02 02:49:46;;;;;;;9.57;4.22;;;;;;;;;;5017096;28;94033;-71
2022/08/02 02:52:14;;;;;;;6.75;3.97;;;;;;;;;;5016428;28;94781;-71
2022/08/02 02:54:41;;;;;;;8.57;4.50;;;;;;;;;;5017327;28;93514;-71
2022/08/02 02:57:08;;;;;;;7.72;4.65;;;;;;;;;;5010132;28;94862;-70
2022/08/02 02:59:37;;;;;;;7.25;4.15;;;;;;;;;;4988302;28;92431;-72
2022/08/02 03:02:15;;;;;;;10.88;4.72;;;;;;;;;;4996500;28;94043;-71
2022/08/02 03:04:42;;;;;;;14.15;5.22;;;;;;;;;;4995971;28;94215;-70
2022/08/02 03:07:22;;;;;;;7.90;4.63;;;;;;;;;;4996784;28;92726;-70
2022/08/02 03:09:50;;;;;;;7.53;4.95;;;;;;;;;;4997000;28;93895;-72
2022/08/02 03:12:22;;;;;;;8.35;4.70;;;;;;;;;;4995568;28;93189;-71
2022/08/02 03:14:54;;;;;;;6.50;4.68;;;;;;;;;;4996485;28;91726;-71
2022/08/02 03:17:20;;;;;;;5.35;4.50;;;;;;;;;;4997400;28;92437;-71
2022/08/02 03:19:46;;;;;;;8.10;4.32;;;;;;;;;;4998591;28;94120;-71
2022/08/02 03:22:13;;;;;;;7.78;4.80;;;;;;;;;;4995432;28;94645;-71
2022/08/02 03:24:40;;;;;;;10.43;4.07;;;;;;;;;;4996245;28;93460;-71
2022/08/02 03:27:06;;;;;;;6.85;4.53;;;;;;;;;;4995688;28;92449;-71
2022/08/02 03:29:33;;;;;;;10.18;4.97;;;;;;;;;;4995950;28;92980;-71
2022/08/02 03:32:00;;;;;;;5.60;4.40;;;;;;;;;;4996631;28;94613;-72
2022/08/02 03:34:26;;;;;;;9.80;4.00;;;;;;;;;;4995883;28;92562;-71
2022/08/02 03:36:54;;;;;;;9.60;5.13;;;;;;;;;;4996052;28;93976;-71
2022/08/02 03:39:21;;;;;;;7.88;4.28;;;;;;;;;;4996145;28;92473;-71
2022/08/02 03:41:48;;;;;;;5.20;4.25;;;;;;;;;;4999042;28;92436;-71
2022/08/02 03:44:15;;;;;;;5.35;4.15;;;;;;;;;;4996136;28;93186;-71
2022/08/02 03:46:42;;;;;;;8.52;4.50;;;;;;;;;;4993517;28;94938;-71
2022/08/02 03:49:09;;;;;;;9.18;4.25;;;;;;;;;;4994864;28;94336;-71
2022/08/02 03:51:35;;;;;;;6.25;4.13;;;;;;;;;;4996322;28;93257;-71
2022/08/02 03:54:02;;;;;;;11.13;4.93;;;;;;;;;;4994914;28;93053;-71
2022/08/02 03:56:29;;;;;;;5.88;4.05;;;;;;;;;;4995827;28;94012;-71
2022/08/02 03:59:05;;;;;;;8.68;4.10;;;;;;;;;;4995758;28;93177;-71
2022/08/02 04:01:32;;;;;;;13.15;4.53;;;;;;;;;;4995403;28;92429;-71
2022/08/02 04:03:58;;;;;;;5.13;4.40;;;;;;;;;;4999290;28;92972;-71
2022/08/02 04:06:25;;;;;;;12.07;5.18;;;;;;;;;;4996674;28;92528;-71
2022/08/02 04:08:53;;;;;;;9.48;4.85;;;;;;;;;;4976053;28;93156;-71
2022/08/02 04:11:32;;;;;;;12.68;4.43;;;;;;;;;;4975024;28;95250;-72
2022/08/02 04:14:04;;;;;;;10.32;4.05;;;;;;;;;;4976069;28;92532;-72
2022/08/02 04:16:37;;;;;;;9.52;4.20;;;;;;;;;;4975296;28;94071;-72
2022/08/02 04:19:04;;;;;;;7.90;4.65;;;;;;;;;;4975696;28;93386;-72
2022/08/02 04:21:32;;;;;;;6.60;4.18;;;;;;;;;;4975650;28;92976;-72
2022/08/02 04:24:20;;;;;;;10.45;4.43;;;;;;;;;;4986177;28;92350;-71
2022/08/02 04:26:50;;;;;;;6.28;4.05;;;;;;;;;;4998704;28;93054;-72
2022/08/02 04:29:17;;;;;;;6.93;4.05;;;;;;;;;;4995326;28;93897;-72
2022/08/02 04:31:43;;;;;;;9.43;4.25;;;;;;;;;;4995192;28;94220;-72
2022/08/02 04:34:10;;;;;;;11.43;4.90;;;;;;;;;;4996091;28;92920;-71
2022/08/02 04:36:40;;;;;;;8.02;4.80;;;;;;;;;;4993134;28;94762;-71
2022/08/02 04:39:07;;;;;;;9.35;3.90;;;;;;;;;;4995251;28;93183;-72
2022/08/02 04:41:37;;;;;;;5.82;3.88;;;;;;;;;;5005394;28;92466;-73
2022/08/02 04:44:09;;;;;;;11.25;4.05;;;;;;;;;;5014991;28;93306;-72
2022/08/02 04:46:35;;;;;;;11.82;4.38;;;;;;;;;;5014507;28;93637;-71
2022/08/02 04:49:02;;;;;;;8.98;4.38;;;;;;;;;;5017913;28;92346;-72
2022/08/02 04:51:32;;;;;;;13.05;4.97;;;;;;;;;;5014852;28;93335;-72
2022/08/02 04:54:04;;;;;;;9.23;3.95;;;;;;;;;;5015817;28;91841;-72
2022/08/02 04:56:35;;;;;;;22.77;4.65;;;;;;;;;;5016214;28;94219;-72
2022/08/02 04:59:03;;;;;;;7.32;4.18;;;;;;;;;;4992626;28;93918;-71
2022/08/02 05:01:31;;;;;;;8.48;4.00;;;;;;;;;;4975281;28;94836;-71
2022/08/02 05:03:57;;;;;;;15.38;4.72;;;;;;;;;;4976040;28;95705;-71
2022/08/02 05:06:23;;;;;;;11.32;3.97;;;;;;;;;;4978822;28;93409;-71
2022/08/02 05:08:50;;;;;;;11.57;4.00;;;;;;;;;;4978230;28;93159;-71
2022/08/02 05:11:18;;;;;;;12.43;4.35;;;;;;;;;;4974150;28;93468;-71
2022/08/02 05:13:46;;;;;;;12.48;4.10;;;;;;;;;;4975129;28;92461;-71
2022/08/02 05:16:27;;;;;;;7.45;4.10;;;;;;;;;;4993723;28;93740;-71
2022/08/02 05:18:57;;;;;;;10.63;4.47;;;;;;;;;;4994572;28;92768;-71
2022/08/02 05:21:24;;;;;;;7.05;4.65;;;;;;;;;;4995319;28;92492;-71
2022/08/02 05:23:51;;;;;;;10.95;4.22;;;;;;;;;;4995152;28;92915;-71
2022/08/02 05:26:17;;;;;;;5.78;3.70;;;;;;;;;;4992138;28;95750;-71
2022/08/02 05:28:45;;;;;;;11.25;4.50;;;;;;;;;;4994853;28;92529;-71
2022/08/02 05:31:11;;;;;;;12.60;3.88;;;;;;;;;;4998147;28;93481;-71
2022/08/02 05:33:39;;;;;;;6.47;3.67;;;;;;;;;;4994141;28;92518;-71
2022/08/02 05:36:08;;;;;;;9.25;3.80;;;;;;;;;;4994799;28;92543;-71
2022/08/02 05:38:34;;;;;;;6.95;3.70;;;;;;;;;;4989424;28;93361;-71
2022/08/02 05:41:03;;;;;;;10.27;3.60;;;;;;;;;;4995339;28;94308;-71
2022/08/02 05:43:29;;;;;;;10.35;3.30;;;;;;;;;;4995044;28;94031;-71
2022/08/02 05:45:55;;;;;;;5.85;2.95;;;;;;;;;;4991843;28;94230;-72
2022/08/02 05:48:22;;;;;;;7.63;3.55;;;;;;;;;;4991938;28;92586;-72
2022/08/02 05:51:02;;;;;;;8.00;3.35;;;;;;;;;;4985291;27;95026;-72
2022/08/02 05:54:04;;;;;;;4.53;3.08;;;;;;;;;;4989343;28;95003;-71
2022/08/02 05:56:32;;;;;;;;;;;;;;;;;;4944333;28;93839;-71
2022/08/02 05:59:17;;;;;;;8.27;3.35;;;;;;;;;;4985018;28;123822;-71
2022/08/02 06:01:47;;;;;;;11.25;3.40;;;;;;;;;;4994737;28;95956;-71
2022/08/02 06:04:18;;;;;;;7.25;3.53;;;;;;;;;;4976690;28;93568;-71
2022/08/02 06:06:51;;;;;;;6.95;3.40;;;;;;;;;;4982181;28;93523;-71
2022/08/02 06:09:18;;;;;;;11.38;3.47;;;;;;;;;;4977637;28;93684;-72
2022/08/02 06:11:52;;;;;;;10.45;3.55;;;;;;;;;;4983848;28;93902;-71
2022/08/02 06:14:36;;;;;;;4.70;3.40;;;;;;;;;;5002796;28;93397;-73
2022/08/02 06:17:03;;;;;;;13.48;3.40;;;;;;;;;;4999920;28;94785;-73
2022/08/02 06:19:30;;;;;;;9.77;3.60;;;;;;;;;;4996338;28;93404;-74
2022/08/02 06:22:16;;;;;;;10.48;3.80;;;;;;;;;;4997365;28;92429;-74
2022/08/02 06:25:03;;;;;;;13.82;3.42;;;;;;;;;;4983760;28;93693;-74
2022/08/02 06:27:30;;;;;;;13.23;3.53;;;;;;;;;;4997086;28;94259;-74
2022/08/02 06:29:57;;;;;;;7.80;3.50;;;;;;;;;;4982278;28;92705;-74
2022/08/02 06:32:25;;;;;;;5.15;3.30;;;;;;;;;;4981766;28;94214;-75
2022/08/02 06:34:51;;;;;;;6.57;3.20;;;;;;;;;;4979479;28;92727;-74
2022/08/02 06:37:18;;;;;;;9.90;4.05;;;;;;;;;;4977886;28;94462;-73
2022/08/02 06:39:46;;;;;;;10.32;3.85;;;;;;;;;;4980399;28;93075;-70
2022/08/02 06:42:16;;;;;;;10.50;3.65;;;;;;;;;;4984803;28;96916;-71
2022/08/02 06:44:54;;;;;;;7.47;3.55;;;;;;;;;;4981334;28;95507;-70
2022/08/02 06:47:23;;;;;;;11.20;4.03;;;;;;;;;;4987242;28;93118;-71
2022/08/02 06:49:49;;;;;;;6.45;3.28;;;;;;;;;;4977677;28;92461;-71
2022/08/02 06:52:21;;;;;;;6.00;3.53;;;;;;;;;;4979657;28;93965;-71
2022/08/02 06:54:55;;;;;;;6.20;3.53;;;;;;;;;;4982737;28;93882;-71
2022/08/02 06:57:22;;;;;;;8.10;3.75;;;;;;;;;;4988977;28;92476;-72
2022/08/02 06:59:48;;;;;;;8.55;3.95;;;;;;;;;;4990399;28;93248;-71
2022/08/02 07:02:14;;;;;;;11.68;3.72;;;;;;;;;;4981311;27;93253;-72
2022/08/02 07:04:41;;;;;;;9.13;3.47;;;;;;;;;;4978849;28;93004;-70
2022/08/02 07:07:07;;;;;;;11.15;4.07;;;;;;;;;;4978446;28;95591;-69
2022/08/02 07:09:33;;;;;;;11.05;4.35;;;;;;;;;;4981272;28;92472;-69
2022/08/02 07:12:00;;;;;;;7.45;4.30;;;;;;;;;;4981869;28;94841;-70
2022/08/02 07:14:27;;;;;;;10.75;4.75;;;;;;;;;;4976506;28;93486;-70
2022/08/02 07:16:53;;;;;;;9.75;3.88;;;;;;;;;;4975525;28;92521;-70
2022/08/02 07:19:19;;;;;;;14.18;4.78;;;;;;;;;;4976905;28;94215;-70
2022/08/02 07:21:46;;;;;;;8.32;4.00;;;;;;;;;;4982306;28;93449;-70
2022/08/02 07:24:25;;;;;;;7.70;4.35;;;;;;;;;;4975409;28;93120;-71
2022/08/02 07:26:52;;;;;;;7.35;4.40;;;;;;;;;;4995248;28;93390;-71
2022/08/02 07:29:37;;;;;;;9.20;4.55;;;;;;;;;;4976802;28;93006;-71
2022/08/02 07:32:16;;;;;;;8.27;4.68;;;;;;;;;;4988337;28;95482;-71
2022/08/02 07:34:42;;;;;;;7.07;4.13;;;;;;;;;;4980436;28;93252;-71
2022/08/02 07:37:19;;;;;;;11.15;5.00;;;;;;;;;;4980644;28;92370;-71
2022/08/02 07:40:06;;;;;;;9.55;4.97;;;;;;;;;;4996209;28;93100;-71
2022/08/02 07:42:39;;;;;;;7.13;4.45;;;;;;;;;;4982521;28;94029;-71
2022/08/02 07:45:06;;;;;;;6.47;4.93;;;;;;;;;;4981534;28;92619;-71
2022/08/02 07:47:35;;;;;;;11.77;4.63;;;;;;;;;;4989516;28;93204;-73
2022/08/02 07:50:01;;;;;;;12.45;4.90;;;;;;;;;;4978834;27;91861;-71
2022/08/02 07:52:28;;;;;;;10.35;4.75;;;;;;;;;;4976708;28;93194;-71
2022/08/02 07:54:56;;;;;;;10.45;5.82;;;;;;;;;;4983388;28;93320;-71
2022/08/02 07:57:24;;;;;;;9.65;5.50;;;;;;;;;;4983813;28;94889;-71
2022/08/02 07:59:50;;;;;;;10.57;6.40;;;;;;;;;;4974940;28;96534;-71
2022/08/02 08:02:19;;;;;;;11.23;6.30;;;;;;;;;;4975413;28;93488;-71
2022/08/02 08:04:45;;;;;;;15.80;6.32;;;;;;;;;;4975525;28;92511;-70
2022/08/02 08:07:14;;;;;;;16.00;6.28;;;;;;;;;;4988924;28;93932;-71
2022/08/02 08:09:40;;;;;;;10.23;5.10;;;;;;;;;;4982793;28;92612;-74
2022/08/02 08:12:07;;;;;;;13.07;5.82;;;;;;;;;;4977947;28;93849;-75
2022/08/02 08:14:35;;;;;;;13.43;6.68;;;;;;;;;;4979397;28;93493;-75
2022/08/02 08:17:02;;;;;;;12.98;6.85;;;;;;;;;;4981897;28;92433;-73
2022/08/02 08:19:28;;;;;;;7.35;6.15;;;;;;;;;;4981453;28;93175;-73
2022/08/02 08:22:15;;;;;;;7.90;6.18;;;;;;;;;;4980565;28;96964;-74
2022/08/02 08:24:42;;;;;;;9.45;5.30;;;;;;;;;;4995527;28;92570;-74
2022/08/02 08:27:13;;;;;;;20.17;7.03;;;;;;;;;;4996123;28;92401;-69
2022/08/02 08:29:41;;;;;;;15.23;5.65;;;;;;;;;;4997128;28;93405;-69
2022/08/02 08:32:07;;;;;;;12.27;5.60;;;;;;;;;;4995276;28;93160;-69
2022/08/02 08:34:41;;;;;;;14.02;5.35;;;;;;;;;;4994426;28;94254;-69
2022/08/02 08:37:08;;;;;;;9.75;4.60;;;;;;;;;;4995669;28;92275;-69
2022/08/02 08:39:34;;;;;;;8.50;4.22;;;;;;;;;;4995943;28;93045;-70
2022/08/02 08:42:20;;;;;;;5.68;3.63;;;;;;;;;;4995029;28;93506;-69
2022/08/02 08:44:47;;;;;;;9.40;3.90;;;;;;;;;;4995639;28;92461;-69
2022/08/02 08:47:13;;;;;;;4.57;3.53;;;;;;;;;;4994107;28;94735;-69
2022/08/02 08:49:41;;;;;;;5.43;3.90;;;;;;;;;;4993613;28;93431;-69
2022/08/02 08:52:21;;;;;;;5.03;3.15;;;;;;;;;;4998913;28;92553;-69
2022/08/02 08:54:48;;;;;;;5.43;3.35;;;;;;;;;;4994471;28;93382;-69
2022/08/02 08:57:16;;;;;;;10.07;4.10;;;;;;;;;;4994670;28;92464;-70
2022/08/02 08:59:43;;;;;;;5.00;3.30;;;;;;;;;;4994913;28;93883;-70
2022/08/02 09:02:10;;;;;;;11.05;3.60;;;;;;;;;;4994905;28;93148;-70
2022/08/02 09:04:47;;;;;;;10.60;2.92;;;;;;;;;;4994720;28;91674;-70
2022/08/02 09:07:21;;;;;;;4.35;2.95;;;;;;;;;;4994855;28;92277;-70
2022/08/02 09:09:47;;;;;;;4.03;2.85;;;;;;;;;;4994362;28;93945;-70
2022/08/02 09:12:17;;;;;;;7.22;3.00;;;;;;;;;;4992897;28;94902;-70
2022/08/02 09:14:45;;;;;;;4.20;3.30;;;;;;;;;;4997147;28;95368;-70
2022/08/02 09:17:16;;;;;;;4.32;2.83;;;;;;;;;;4994210;28;92503;-69
2022/08/02 09:19:42;;;;;;;5.03;3.05;;;;;;;;;;4994632;28;93116;-70
2022/08/02 09:22:12;;;;;;;4.10;2.50;;;;;;;;;;4994071;28;93486;-70
2022/08/02 09:24:40;;;;;;;3.30;2.95;;;;;;;;;;4996300;28;92394;-70
2022/08/02 09:27:14;;;;;;;5.05;3.22;;;;;;;;;;4998440;28;93608;-70
2022/08/02 09:29:43;;;;;;;3.80;2.88;;;;;;;;;;4998622;28;92801;-70
2022/08/02 09:32:42;;;;;;;6.75;2.95;;;;;;;;;;4997115;28;92441;-70
2022/08/02 09:35:09;;;;;;;5.97;3.50;;;;;;;;;;5001058;28;92295;-71
2022/08/02 09:37:36;;;;;;;4.78;3.28;;;;;;;;;;4994624;28;94942;-70
2022/08/02 09:40:04;;;;;;;3.60;2.90;;;;;;;;;;4996809;28;95585;-71
2022/08/02 09:42:31;;;;;;;5.40;3.88;;;;;;;;;;4998212;28;93419;-71
2022/08/02 09:44:58;;;;;;;4.38;3.95;;;;;;;;;;4997602;28;92447;-72
2022/08/02 09:47:26;;;;;;;4.18;3.50;;;;;;;;;;4997607;28;93581;-71
2022/08/02 09:49:53;;;;;;;4.30;3.75;;;;;;;;;;4997083;28;93479;-70
2022/08/02 09:52:30;;;;;;;6.38;4.13;;;;;;;;;;4997109;28;92782;-71
2022/08/02 09:55:10;;;;;;;8.95;3.88;;;;;;;;;;4992735;28;93102;-71
2022/08/02 09:57:37;;;;;;;4.90;4.50;;;;;;;;;;4980527;28;92904;-70
2022/08/02 10:00:11;;;;;;;6.35;4.57;;;;;;;;;;4977575;28;93023;-71
2022/08/02 10:03:01;;;;;;;5.50;4.22;;;;;;;;;;4976488;28;95759;-71
2022/08/02 10:05:29;;;;;;;5.35;4.03;;;;;;;;;;4978742;28;92421;-71
2022/08/02 10:08:09;;;;;;;5.43;4.40;;;;;;;;;;4979544;28;93066;-71
2022/08/02 10:10:36;;;;;;;6.50;4.47;;;;;;;;;;4977192;28;93443;-70
2022/08/02 10:13:03;;;;;;;8.90;5.25;;;;;;;;;;4995027;28;92459;-70
2022/08/02 10:15:30;;;;;;;9.20;4.97;;;;;;;;;;4997168;28;93085;-70
2022/08/02 10:17:56;;;;;;;6.38;5.30;;;;;;;;;;4997338;28;93417;-70
2022/08/02 10:20:23;;;;;;;9.18;5.00;;;;;;;;;;5001332;28;92157;-69
2022/08/02 10:22:50;;;;;;;8.85;4.63;;;;;;;;;;4997531;28;93548;-70
2022/08/02 10:25:17;;;;;;;8.52;5.40;;;;;;;;;;4997839;28;92584;-69
2022/08/02 10:27:45;;;;;;;5.80;5.03;;;;;;;;;;4995146;28;94755;-69
2022/08/02 10:30:31;;;;;;;7.55;5.10;;;;;;;;;;4997423;28;93330;-70
2022/08/02 10:32:58;;;;;;;6.78;5.40;;;;;;;;;;4997150;28;92306;-70
2022/08/02 10:35:24;;;;;;;7.10;4.25;;;;;;;;;;4996090;28;93969;-71
2022/08/02 10:37:56;;;;;;;8.25;4.15;;;;;;;;;;4996743;28;94097;-70
2022/08/02 10:40:25;;;;;;;7.05;4.97;;;;;;;;;;4997421;28;92563;-70
2022/08/02 10:42:52;;;;;;;5.18;3.88;;;;;;;;;;4999205;28;93080;-70
2022/08/02 10:45:20;;;;;;;5.22;3.85;;;;;;;;;;4998133;28;91691;-70
2022/08/02 10:48:02;;;;;;;6.85;3.15;;;;;;;;;;4996879;28;92446;-70
2022/08/02 10:50:43;;;;;;;5.70;3.28;;;;;;;;;;4996290;28;93295;-70
2022/08/02 10:53:25;;;;;;;5.35;3.15;;;;;;;;;;4995986;28;96190;-70
2022/08/02 10:55:52;;;;;;;6.07;4.13;;;;;;;;;;4996265;28;95530;-71
2022/08/02 10:58:20;;;;;;;3.60;3.30;;;;;;;;;;4997107;28;93438;-70
2022/08/02 11:00:51;;;;;;;4.57;3.35;;;;;;;;;;4997272;28;92454;-70
2022/08/02 11:03:27;;;;;;;3.75;2.70;;;;;;;;;;4996254;28;92501;-71
2022/08/02 11:06:13;;;;;;;2.80;2.60;;;;;;;;;;4999627;28;93323;-71
2022/08/02 11:09:10;;;;;;;2.72;2.50;;;;;;;;;;4997019;28;92929;-71
2022/08/02 11:11:56;;;;;;;7.20;2.85;;;;;;;;;;4991508;27;92849;-71
2022/08/02 11:14:22;;;;;;;2.90;2.50;;;;;;;;;;4977400;28;92709;-70
2022/08/02 11:16:55;;;;;;;2.78;2.30;;;;;;;;;;4976419;28;94011;-70
2022/08/02 11:19:22;;;;;;;2.30;2.10;;;;;;;;;;4975408;28;95797;-70
2022/08/02 11:22:03;;;;;;;3.50;2.22;;;;;;;;;;4976383;28;92482;-70
2022/08/02 11:24:32;;;;;;;3.00;1.70;;;;;;;;;;4976632;28;92999;-70
2022/08/02 11:26:59;;;;;;;3.22;2.00;;;;;;;;;;4976360;28;93487;-70
2022/08/02 11:29:32;;;;;;;2.38;1.80;;;;;;;;;;4979788;28;92386;-70
2022/08/02 11:32:04;;;;;;;2.75;1.73;;;;;;;;;;4976036;28;93507;-70
2022/08/02 11:34:32;;;;;;;3.95;2.13;;;;;;;;;;4976769;28;92446;-70
2022/08/02 11:37:03;;;;;;;1.92;1.80;;;;;;;;;;4977161;28;93296;-70
2022/08/02 11:39:30;;;;;;;5.15;1.90;;;;;;;;;;4976693;28;93429;-70
2022/08/02 11:41:57;;;;;;;2.53;1.98;;;;;;;;;;4975990;28;92409;-70
2022/08/02 11:44:25;;;;;;;1.73;1.60;;;;;;;;;;4975277;28;94872;-70
2022/08/02 11:47:01;;;;;;;1.73;1.63;;;;;;;;;;4974763;28;92598;-70
2022/08/02 11:49:28;;;;;;;5.53;2.03;;;;;;;;;;4978860;28;93035;-70
2022/08/02 11:52:00;;;;;;;1.60;1.50;;;;;;;;;;4975231;28;93782;-71
2022/08/02 11:54:28;;;;;;;8.15;1.50;;;;;;;;;;4976800;28;92479;-70
2022/08/02 11:57:07;;;;;;;2.42;1.55;;;;;;;;;;4976351;28;92550;-70
2022/08/02 11:59:35;;;;;;;1.50;1.40;;;;;;;;;;4975989;28;93394;-70
2022/08/02 12:02:03;;;;;;;3.13;1.63;;;;;;;;;;4977545;28;91815;-70
2022/08/02 12:04:30;;;;;;;2.72;1.50;;;;;;;;;;4977299;28;92791;-69
2022/08/02 12:07:00;;;;;;;4.88;1.55;;;;;;;;;;4976415;28;93303;-70
2022/08/02 12:09:28;;;;;;;5.30;1.70;;;;;;;;;;4974698;28;94955;-70
2022/08/02 12:11:55;;;;;;;2.15;1.70;;;;;;;;;;4978839;28;95359;-70
2022/08/02 12:14:22;;;;;;;6.60;1.55;;;;;;;;;;4975846;28;92583;-70
2022/08/02 12:19:35;;;;;;;3.28;1.70;;;;;;;;;;4977307;28;93379;-70
2022/08/02 12:22:07;;;;;;;2.17;1.80;;;;;;;;;;4975626;28;93008;-70
2022/08/02 12:24:34;;;;;;;6.13;1.50;;;;;;;;;;4976667;28;92927;-70
2022/08/02 12:27:00;;;;;;;1.50;1.40;;;;;;;;;;4976674;28;91720;-71
2022/08/02 12:29:34;;;;;;;3.33;1.23;;;;;;;;;;4976640;28;92589;-70
2022/08/02 12:32:24;;;;;;;1.65;1.42;;;;;;;;;;4976065;28;93839;-70
2022/08/02 12:35:19;;;;;;;5.00;1.30;;;;;;;;;;4976995;28;95100;-69
2022/08/02 12:37:52;;;;;;;1.58;1.17;;;;;;;;;;4975134;28;95418;-70
2022/08/02 12:40:18;;;;;;;2.42;1.48;;;;;;;;;;4976967;28;93225;-70
2022/08/02 12:43:01;;;;;;;8.32;1.52;;;;;;;;;;4975893;28;92394;-70
2022/08/02 12:45:28;;;;;;;5.95;1.67;;;;;;;;;;4976150;28;93315;-70
2022/08/02 12:48:07;;;;;;;1.58;1.40;;;;;;;;;;4976474;28;93174;-70
2022/08/02 12:50:36;;;;;;;2.30;1.50;;;;;;;;;;4975798;28;92511;-70
2022/08/02 12:53:16;;;;;;;1.50;1.40;;;;;;;;;;4976120;28;93340;-70
2022/08/02 12:55:46;;;;;;;2.22;1.48;;;;;;;;;;4974592;28;93360;-70
2022/08/02 12:58:25;;;;;;;3.17;1.85;;;;;;;;;;4980444;28;92304;-70
2022/08/02 13:00:53;;;;;;;3.47;1.70;;;;;;;;;;4977891;28;95937;-70
2022/08/02 13:03:20;;;;;;;5.88;1.85;;;;;;;;;;4979469;28;92887;-70
2022/08/02 13:06:06;;;;;;;4.55;1.80;;;;;;;;;;4980215;28;92925;-70
2022/08/02 13:08:57;;;;;;;4.43;1.42;;;;;;;;;;4978748;28;93251;-69
2022/08/02 13:11:24;;;;;;;4.82;2.03;;;;;;;;;;4979696;28;92447;-69
2022/08/02 13:13:50;;;;;;;4.43;1.55;;;;;;;;;;4978478;28;93077;-69
2022/08/02 13:16:17;;;;;;;3.78;2.08;;;;;;;;;;4978444;28;93499;-69
2022/08/02 13:18:56;;;;;;;5.35;1.90;;;;;;;;;;4979197;28;91690;-69
2022/08/02 13:21:22;;;;;;;5.20;1.50;;;;;;;;;;4981580;28;93463;-70
2022/08/02 13:24:07;;;;;;;3.83;1.80;;;;;;;;;;4977969;28;93037;-69
2022/08/02 13:26:53;;;;;;;4.88;1.77;;;;;;;;;;4977272;28;94867;-69
2022/08/02 13:29:19;;;;;;;5.78;2.10;;;;;;;;;;4978458;28;94203;-69
2022/08/02 13:31:46;;;;;;;3.20;1.85;;;;;;;;;;4977041;28;92467;-69
2022/08/02 13:34:12;;;;;;;3.70;1.55;;;;;;;;;;4977881;28;93995;-69
2022/08/02 13:36:39;;;;;;;3.08;1.65;;;;;;;;;;4978528;28;92333;-69
2022/08/02 13:39:07;;;;;;;2.15;1.33;;;;;;;;;;4978445;28;92418;-69
2022/08/02 13:41:34;;;;;;;6.60;1.85;;;;;;;;;;4981087;28;92972;-70
2022/08/02 13:44:08;;;;;;;3.63;1.50;;;;;;;;;;4979553;28;92657;-70
2022/08/02 13:46:38;;;;;;;3.35;1.50;;;;;;;;;;4978490;28;93772;-69
2022/08/02 13:49:11;;;;;;;3.75;1.50;;;;;;;;;;4978448;28;93515;-70
2022/08/02 13:51:44;;;;;;;4.90;1.45;;;;;;;;;;4975469;28;95329;-70
2022/08/02 13:54:11;;;;;;;6.53;1.70;;;;;;;;;;4978866;28;95262;-70
2022/08/02 13:56:37;;;;;;;3.42;1.20;;;;;;;;;;4977852;28;94108;-70
2022/08/02 13:59:03;;;;;;;4.35;1.77;;;;;;;;;;4996811;28;92509;-70
2022/08/02 14:01:53;;;;;;;2.33;1.40;;;;;;;;;;4997673;28;92893;-70
2022/08/02 14:04:20;;;;;;;2.13;1.17;;;;;;;;;;5000594;28;93468;-69
2022/08/02 14:06:47;;;;;;;8.93;1.60;;;;;;;;;;4996908;28;93829;-70
2022/08/02 14:09:13;;;;;;;3.78;1.60;;;;;;;;;;4997723;28;93895;-69
2022/08/02 14:11:42;;;;;;;2.85;1.40;;;;;;;;;;4997846;28;92424;-70
2022/08/02 14:14:10;;;;;;;9.35;1.63;;;;;;;;;;4997318;28;93130;-70
2022/08/02 14:16:42;;;;;;;2.60;1.25;;;;;;;;;;4996109;28;95760;-70
2022/08/02 14:19:09;;;;;;;4.18;1.58;;;;;;;;;;4998038;28;92479;-70
2022/08/02 14:21:42;;;;;;;2.45;1.48;;;;;;;;;;4997227;28;93151;-70
2022/08/02 14:24:16;;;;;;;3.03;1.50;;;;;;;;;;4997969;28;93269;-70
2022/08/02 14:26:43;;;;;;;4.07;1.35;;;;;;;;;;4999945;28;92532;-69
2022/08/02 14:29:11;;;;;;;2.85;1.50;;;;;;;;;;4997401;28;93050;-69
2022/08/02 14:31:37;;;;;;;5.95;1.38;;;;;;;;;;4996880;28;92549;-69
2022/08/02 14:34:09;;;;;;;9.52;1.52;;;;;;;;;;4997331;28;93024;-69
2022/08/02 14:36:37;;;;;;;10.40;2.08;;;;;;;;;;4997635;28;93279;-70
2022/08/02 14:39:03;;;;;;;2.88;1.20;;;;;;;;;;4997866;28;92478;-69
2022/08/02 14:41:32;;;;;;;1.67;1.40;;;;;;;;;;4995365;28;94744;-69
2022/08/02 14:44:04;;;;;;;2.72;1.58;;;;;;;;;;4996758;28;93531;-70
2022/08/02 14:46:31;;;;;;;2.88;1.27;;;;;;;;;;4997488;28;92434;-70
2022/08/02 14:49:00;;;;;;;8.18;1.80;;;;;;;;;;4998672;28;93035;-70
2022/08/02 14:51:28;;;;;;;3.70;1.98;;;;;;;;;;4997956;28;92489;-70
2022/08/02 14:53:56;;;;;;;3.40;1.67;;;;;;;;;;4996862;28;93363;-70
2022/08/02 14:56:28;;;;;;;9.55;1.98;;;;;;;;;;4995987;28;92402;-70
2022/08/02 14:58:55;;;;;;;3.78;1.70;;;;;;;;;;4997361;28;91678;-70
2022/08/02 15:01:22;;;;;;;8.68;2.15;;;;;;;;;;4995823;28;92414;-69